Time;durP1;ratioP1;P1;durP2;ratioP2;P2;SDS_P1;SDS_P2;PMS_P1;PMS_P2;Temp;Humidity;BMP_temperature;BMP_pressure;BME280_temperature;BME280_humidity;BME280_pressure;Samples;Min_cycle;Max_cycle;Signal;HPM_P1;HPM_P2
2021/12/04 00:00:21;;;;;;;4.18;3.88;;;-1.60;99.90;;;;;;5105090;27;20907;-57
2021/12/04 00:03:01;;;;;;;4.45;4.13;;;-1.60;99.90;;;;;;5084461;28;20655;-57
2021/12/04 00:05:46;;;;;;;4.47;4.15;;;-1.50;99.90;;;;;;5156075;27;20541;-57
2021/12/04 00:08:28;;;;;;;4.60;4.30;;;-1.50;99.90;;;;;;5084913;28;20672;-57
2021/12/04 00:11:07;;;;;;;4.65;4.20;;;-1.50;99.90;;;;;;5105895;27;20654;-56
2021/12/04 00:13:47;;;;;;;4.90;4.45;;;-1.40;99.90;;;;;;5084129;27;20717;-57
2021/12/04 00:16:26;;;;;;;4.72;4.43;;;-1.40;99.90;;;;;;5084197;28;20668;-56
2021/12/04 00:19:07;;;;;;;4.38;4.07;;;-1.40;99.90;;;;;;5081615;28;21080;-56
2021/12/04 00:21:46;;;;;;;4.05;3.75;;;-1.40;99.90;;;;;;5083961;28;20668;-57
2021/12/04 00:24:27;;;;;;;3.20;2.78;;;-1.40;99.90;;;;;;5081909;27;20565;-57
2021/12/04 00:27:08;;;;;;;3.92;3.55;;;-1.40;99.90;;;;;;5125630;27;20997;-57
2021/12/04 00:29:47;;;;;;;3.85;3.55;;;-1.30;99.90;;;;;;5084778;28;21212;-57
2021/12/04 00:32:30;;;;;;;5.22;3.78;;;-1.30;99.90;;;;;;5084172;27;20535;-57
2021/12/04 00:35:15;;;;;;;4.15;3.75;;;-1.30;99.90;;;;;;5083878;28;20671;-57
2021/12/04 00:38:08;;;;;;;4.05;3.75;;;-1.30;99.90;;;;;;5084948;28;20656;-57
2021/12/04 00:49:40;;;;;;;3.80;3.50;;;-1.40;99.90;;;;;;5105306;27;20541;-57
2021/12/04 00:52:19;;;;;;;4.43;3.53;;;-1.40;99.90;;;;;;5085083;27;20536;-57
2021/12/04 00:54:59;;;;;;;4.10;3.80;;;-1.40;99.90;;;;;;5083851;27;20551;-57
2021/12/04 00:57:39;;;;;;;3.80;3.50;;;-1.40;99.90;;;;;;5085273;28;20543;-57
2021/12/04 01:00:19;;;;;;;4.70;4.30;;;-1.40;99.90;;;;;;5084386;27;20547;-58
2021/12/04 01:02:59;;;;;;;3.90;3.60;;;-1.40;99.90;;;;;;5146310;27;20560;-57
2021/12/04 01:05:40;;;;;;;4.03;3.75;;;-1.30;99.90;;;;;;5083831;27;20544;-57
2021/12/04 01:08:20;;;;;;;3.65;3.35;;;-1.30;99.90;;;;;;5105241;27;20678;-57
2021/12/04 01:11:02;;;;;;;4.28;3.92;;;-1.30;99.90;;;;;;5085166;27;20551;-57
2021/12/04 01:13:41;;;;;;;4.25;3.95;;;-1.30;99.90;;;;;;5142533;27;20542;-57
2021/12/04 01:16:21;;;;;;;3.45;3.25;;;-1.30;99.90;;;;;;5067757;27;20553;-57
2021/12/04 01:19:01;;;;;;;3.85;3.55;;;-1.30;99.90;;;;;;5104702;27;20681;-57
2021/12/04 01:21:41;;;;;;;3.47;3.28;;;-1.40;99.90;;;;;;5084202;28;20656;-57
2021/12/04 01:24:23;;;;;;;3.40;3.13;;;-1.40;99.90;;;;;;5124796;27;21088;-57
2021/12/04 01:27:02;;;;;;;3.97;3.67;;;-1.40;99.90;;;;;;5085007;27;20535;-57
2021/12/04 01:29:42;;;;;;;3.78;3.47;;;-1.40;99.90;;;;;;5084434;28;20672;-57
2021/12/04 01:32:22;;;;;;;3.55;3.25;;;-1.40;99.90;;;;;;5167250;27;20659;-57
2021/12/04 01:35:01;;;;;;;3.58;3.33;;;-1.40;99.90;;;;;;5083870;27;20898;-57
2021/12/04 01:37:41;;;;;;;3.88;3.58;;;-1.40;99.90;;;;;;5084958;27;20871;-57
2021/12/04 01:40:22;;;;;;;4.15;3.83;;;-1.30;99.90;;;;;;5144090;27;20538;-57
2021/12/04 01:43:01;;;;;;;4.80;4.43;;;-1.30;99.90;;;;;;5084916;27;20563;-57
2021/12/04 01:45:41;;;;;;;4.32;4.03;;;-1.30;99.90;;;;;;5083804;27;20544;-57
2021/12/04 01:48:21;;;;;;;4.60;4.22;;;-1.20;99.90;;;;;;5084835;28;20660;-57
2021/12/04 01:51:01;;;;;;;3.10;2.75;;;-1.20;99.90;;;;;;5084743;27;20551;-57
2021/12/04 01:53:40;;;;;;;4.15;3.85;;;-1.10;99.90;;;;;;5084763;28;20547;-57
2021/12/04 01:56:21;;;;;;;3.50;3.30;;;-1.00;99.90;;;;;;5145982;27;20684;-57
2021/12/04 01:59:00;;;;;;;3.42;3.13;;;-0.90;99.90;;;;;;5085169;28;20676;-57
2021/12/04 02:01:40;;;;;;;3.78;3.47;;;-0.80;99.90;;;;;;5084911;28;21181;-57
2021/12/04 02:04:20;;;;;;;3.38;3.05;;;-0.80;99.90;;;;;;5084411;27;21165;-57
2021/12/04 02:07:03;;;;;;;3.67;3.38;;;-0.70;99.90;;;;;;5084789;28;20968;-57
2021/12/04 02:09:42;;;;;;;2.35;2.15;;;-0.70;99.90;;;;;;5084640;27;20557;-57
2021/12/04 02:12:22;;;;;;;3.67;3.38;;;-0.70;99.90;;;;;;5084714;28;20663;-57
2021/12/04 02:15:02;;;;;;;3.35;3.08;;;-0.60;99.90;;;;;;5125196;27;20947;-57
2021/12/04 02:17:45;;;;;;;3.65;3.35;;;-0.50;99.90;;;;;;5085060;27;20863;-57
2021/12/04 02:20:28;;;;;;;3.78;3.47;;;-0.50;99.90;;;;;;5105587;27;20537;-56
2021/12/04 02:23:09;;;;;;;3.75;3.30;;;-0.50;99.90;;;;;;5084732;28;21020;-57
2021/12/04 02:25:50;;;;;;;3.30;3.10;;;-0.50;99.90;;;;;;5105125;27;20677;-57
2021/12/04 02:28:29;;;;;;;3.67;3.38;;;-0.50;99.90;;;;;;5142461;27;21031;-57
2021/12/04 02:31:09;;;;;;;3.42;3.13;;;-0.50;99.90;;;;;;5084415;27;20584;-57
2021/12/04 02:33:49;;;;;;;3.10;2.90;;;-0.50;99.90;;;;;;5124993;27;21196;-57
2021/12/04 02:36:29;;;;;;;3.40;3.10;;;-0.50;99.90;;;;;;5084231;27;20543;-57
2021/12/04 02:39:09;;;;;;;2.90;2.70;;;-0.50;99.90;;;;;;5082865;28;20656;-57
2021/12/04 02:41:48;;;;;;;3.13;2.92;;;-0.50;99.90;;;;;;5084689;27;20548;-57
2021/12/04 02:44:34;;;;;;;4.03;2.92;;;-0.50;99.90;;;;;;5145063;27;21079;-57
2021/12/04 02:47:14;;;;;;;3.05;2.85;;;-0.40;99.90;;;;;;5083492;28;20975;-57
2021/12/04 02:49:55;;;;;;;3.15;2.95;;;-0.40;99.90;;;;;;5078522;27;20585;-58
2021/12/04 02:52:35;;;;;;;2.80;2.60;;;-0.40;99.90;;;;;;5104361;27;20534;-57
2021/12/04 02:55:16;;;;;;;2.47;2.28;;;-0.40;99.90;;;;;;5083828;27;21072;-57
2021/12/04 02:57:55;;;;;;;2.80;2.60;;;-0.40;99.90;;;;;;5145882;27;20676;-57
2021/12/04 03:00:41;;;;;;;3.17;2.88;;;-0.30;99.90;;;;;;5125646;27;21224;-57
2021/12/04 03:03:21;;;;;;;3.63;3.38;;;-0.30;99.90;;;;;;5084789;28;20573;-57
2021/12/04 03:06:01;;;;;;;3.70;3.10;;;-0.30;99.90;;;;;;5070784;27;20549;-57
2021/12/04 03:08:41;;;;;;;3.55;3.25;;;-0.30;99.90;;;;;;5085029;27;20535;-57
2021/12/04 03:11:21;;;;;;;2.80;2.60;;;-0.40;99.90;;;;;;5105224;27;20669;-57
2021/12/04 03:14:01;;;;;;;4.65;3.42;;;-0.40;99.90;;;;;;5145692;27;20538;-57
2021/12/04 03:16:42;;;;;;;3.58;3.22;;;-0.40;99.90;;;;;;5105591;27;20693;-57
2021/12/04 03:19:22;;;;;;;3.08;2.88;;;-0.40;99.90;;;;;;5146528;27;20970;-57
2021/12/04 03:22:02;;;;;;;3.25;3.05;;;-0.40;99.90;;;;;;5104771;27;20549;-57
2021/12/04 03:24:43;;;;;;;4.43;3.55;;;-0.40;99.90;;;;;;5104438;27;20526;-56
2021/12/04 03:27:25;;;;;;;3.00;2.80;;;-0.40;99.90;;;;;;5146823;27;20538;-56
2021/12/04 03:30:12;;;;;;;2.80;2.60;;;-0.50;99.90;;;;;;5084669;28;20675;-57
2021/12/04 03:35:15;;;;;;;3.78;3.47;;;-0.50;99.90;;;;;;5145752;27;20653;-57
2021/12/04 03:41:51;;;;;;;3.35;2.97;;;-0.70;99.90;;;;;;5146491;27;20538;-57
2021/12/04 03:44:31;;;;;;;2.97;2.78;;;-0.70;99.90;;;;;;5083767;27;20547;-57
2021/12/04 03:47:11;;;;;;;3.83;3.55;;;-0.70;99.90;;;;;;5085285;28;20659;-57
2021/12/04 03:49:51;;;;;;;3.85;3.50;;;-0.70;99.90;;;;;;5103671;27;20583;-57
2021/12/04 03:52:30;;;;;;;3.53;3.22;;;-0.70;99.90;;;;;;5084669;27;20552;-57
2021/12/04 03:55:11;;;;;;;4.05;3.75;;;-0.70;99.90;;;;;;5084130;28;20703;-57
2021/12/04 03:57:50;;;;;;;3.63;3.33;;;-0.80;99.90;;;;;;5126282;27;20532;-57
2021/12/04 04:00:30;;;;;;;3.60;3.40;;;-0.80;99.90;;;;;;5084623;28;20659;-57
2021/12/04 04:03:09;;;;;;;3.38;3.08;;;-0.80;99.90;;;;;;5085103;27;20528;-57
2021/12/04 04:05:49;;;;;;;3.85;3.55;;;-0.80;99.90;;;;;;5084181;27;20555;-57
2021/12/04 04:08:29;;;;;;;3.35;3.05;;;-0.90;99.90;;;;;;5105330;27;20990;-57
2021/12/04 04:11:09;;;;;;;3.60;3.40;;;-0.90;99.90;;;;;;5084624;28;20688;-57
2021/12/04 04:13:49;;;;;;;2.88;2.65;;;-0.90;99.90;;;;;;5084602;28;20656;-57
2021/12/04 04:16:29;;;;;;;3.33;3.10;;;-0.90;99.90;;;;;;5084417;28;20551;-57
2021/12/04 04:19:09;;;;;;;3.55;3.35;;;-0.90;99.90;;;;;;5084854;27;20535;-57
2021/12/04 04:21:53;;;;;;;3.45;3.25;;;-0.90;99.90;;;;;;5084418;27;20915;-57
2021/12/04 04:24:34;;;;;;;4.00;3.70;;;-1.00;99.90;;;;;;5146296;27;21051;-57
2021/12/04 04:27:13;;;;;;;3.42;3.22;;;-1.00;99.90;;;;;;5085659;27;20553;-57
2021/12/04 04:29:53;;;;;;;3.78;2.88;;;-1.00;99.90;;;;;;5084754;28;20676;-57
2021/12/04 04:32:33;;;;;;;3.35;3.15;;;-1.00;99.90;;;;;;5105121;27;21206;-57
2021/12/04 04:35:15;;;;;;;2.88;2.67;;;-1.00;99.90;;;;;;5145248;27;20607;-57
2021/12/04 04:38:02;;;;;;;3.05;2.83;;;-1.00;99.90;;;;;;5084412;28;20660;-56
2021/12/04 04:58:42;;;;;;;3.50;2.13;;;-1.10;99.90;;;;;;5084230;28;20679;-57
2021/12/04 05:01:32;;;;;;;3.60;3.30;;;-1.10;99.90;;;;;;5140292;27;20554;-57
2021/12/04 05:13:18;;;;;;;2.90;2.70;;;-1.00;99.90;;;;;;5075273;28;20679;-57
2021/12/04 05:15:59;;;;;;;2.38;2.28;;;-1.10;99.90;;;;;;5125184;27;20560;-56
2021/12/04 05:18:42;;;;;;;2.50;2.35;;;-1.00;99.90;;;;;;5085017;28;20675;-56
2021/12/04 05:21:21;;;;;;;2.30;2.13;;;-1.00;99.90;;;;;;5084808;27;20672;-57
2021/12/04 05:24:00;;;;;;;2.20;2.10;;;-1.00;99.90;;;;;;5084349;28;21047;-57
2021/12/04 05:26:40;;;;;;;3.10;2.90;;;-1.00;99.90;;;;;;5146630;27;21021;-57
2021/12/04 05:29:20;;;;;;;3.00;2.70;;;-1.00;99.90;;;;;;5084785;27;20539;-57
2021/12/04 05:32:00;;;;;;;3.40;3.10;;;-1.00;99.90;;;;;;5084916;28;20671;-57
2021/12/04 05:34:40;;;;;;;3.40;3.15;;;-1.00;99.90;;;;;;5084411;28;20664;-57
2021/12/04 05:37:20;;;;;;;3.58;2.85;;;-1.10;99.90;;;;;;5105415;27;20555;-57
2021/12/04 05:39:59;;;;;;;2.63;2.47;;;-1.10;99.90;;;;;;5138545;27;20673;-57
2021/12/04 05:42:39;;;;;;;3.33;3.03;;;-1.00;99.90;;;;;;5150923;27;20661;-57
2021/12/04 05:45:22;;;;;;;2.63;2.42;;;-1.00;99.90;;;;;;5128867;27;20675;-57
2021/12/04 05:48:05;;;;;;;2.40;2.20;;;-1.00;99.90;;;;;;5082791;28;21228;-57
2021/12/04 05:53:58;;;;;;;2.40;2.20;;;-1.00;99.90;;;;;;5125537;27;21142;-57
2021/12/04 05:56:37;;;;;;;2.70;2.50;;;-1.00;99.90;;;;;;5125800;27;20613;-57
2021/12/04 05:59:17;;;;;;;2.13;2.03;;;-1.00;99.90;;;;;;5105482;27;20542;-57
2021/12/04 06:01:57;;;;;;;2.58;2.42;;;-1.00;99.90;;;;;;5105993;27;20568;-57
2021/12/04 06:04:36;;;;;;;2.60;2.40;;;-1.00;99.90;;;;;;5083889;28;21068;-57
2021/12/04 06:07:16;;;;;;;2.33;2.22;;;-0.90;99.90;;;;;;5105512;27;20993;-57
2021/12/04 06:09:56;;;;;;;2.03;1.92;;;-0.90;99.90;;;;;;5125515;27;20552;-57
2021/12/04 06:12:36;;;;;;;2.60;2.42;;;-0.90;99.90;;;;;;5085002;27;20558;-56
2021/12/04 06:15:16;;;;;;;2.38;2.28;;;-0.90;99.90;;;;;;5104061;27;20694;-57
2021/12/04 06:17:56;;;;;;;2.55;2.40;;;-0.90;99.90;;;;;;5084869;28;20687;-57
2021/12/04 06:23:33;;;;;;;2.67;2.47;;;-0.80;99.90;;;;;;5133927;27;20554;-57
2021/12/04 06:26:13;;;;;;;2.40;2.20;;;-0.80;99.90;;;;;;5103628;27;20557;-56
2021/12/04 06:28:52;;;;;;;1.65;1.55;;;-0.80;99.90;;;;;;5084408;28;20671;-57
2021/12/04 06:31:32;;;;;;;3.10;2.85;;;-0.80;99.90;;;;;;5085377;27;21038;-57
2021/12/04 06:34:12;;;;;;;3.75;3.53;;;-0.80;99.90;;;;;;5125129;27;20544;-57
2021/12/04 06:36:52;;;;;;;3.08;2.88;;;-0.80;99.90;;;;;;5106005;27;20670;-57
2021/12/04 06:39:32;;;;;;;2.28;2.17;;;-0.80;99.90;;;;;;5073511;27;20612;-57
2021/12/04 06:42:12;;;;;;;2.83;2.63;;;-0.90;99.90;;;;;;5103797;27;20555;-57
2021/12/04 06:44:54;;;;;;;4.13;3.83;;;-0.80;99.90;;;;;;5083458;27;20711;-57
2021/12/04 06:47:36;;;;;;;4.13;3.83;;;-0.80;99.90;;;;;;5125510;27;20664;-57
2021/12/04 06:50:20;;;;;;;3.65;3.35;;;-0.80;99.90;;;;;;5082767;27;20882;-57
2021/12/04 06:53:06;;;;;;;3.65;3.45;;;-0.80;99.90;;;;;;5125941;27;20580;-57
2021/12/04 06:55:48;;;;;;;4.65;4.35;;;-0.80;99.90;;;;;;5084036;27;21039;-57
2021/12/04 06:58:29;;;;;;;3.10;2.90;;;-0.80;99.90;;;;;;5126028;27;21195;-57
2021/12/04 07:01:10;;;;;;;2.47;2.38;;;-0.80;99.90;;;;;;5128990;27;20552;-57
2021/12/04 07:03:51;;;;;;;2.80;2.60;;;-0.80;99.90;;;;;;5139378;27;20953;-57
2021/12/04 07:06:31;;;;;;;2.60;2.40;;;-0.70;99.90;;;;;;5143889;27;20673;-57
2021/12/04 07:09:11;;;;;;;2.70;2.60;;;-0.70;99.90;;;;;;5122065;27;20677;-57
2021/12/04 07:11:50;;;;;;;2.90;2.70;;;-0.70;99.90;;;;;;5124005;27;20532;-57
2021/12/04 07:14:33;;;;;;;3.35;3.15;;;-0.60;99.90;;;;;;5082157;28;20547;-55
2021/12/04 07:17:13;;;;;;;3.10;2.90;;;-0.60;99.90;;;;;;5083179;28;20572;-57
2021/12/04 07:19:53;;;;;;;1.85;1.75;;;-0.60;99.90;;;;;;5115325;27;20610;-57
2021/12/04 07:22:33;;;;;;;2.95;2.75;;;-0.60;99.90;;;;;;5140576;27;20619;-57
2021/12/04 07:25:13;;;;;;;2.70;2.50;;;-0.50;99.90;;;;;;5118576;27;20721;-57
2021/12/04 07:27:52;;;;;;;4.25;3.85;;;-0.50;99.90;;;;;;5120971;27;20557;-57
2021/12/04 07:30:32;;;;;;;4.10;3.80;;;-0.40;99.90;;;;;;5062534;28;21089;-57
2021/12/04 07:33:12;;;;;;;5.13;4.78;;;-0.40;99.90;;;;;;5061080;27;20577;-56
2021/12/04 07:35:52;;;;;;;5.55;5.05;;;-0.30;99.90;;;;;;5060446;22;20632;-55
2021/12/04 07:38:32;;;;;;;5.40;4.90;;;-0.20;99.90;;;;;;5063160;27;20586;-55
2021/12/04 07:41:12;;;;;;;4.63;4.20;;;0.00;99.90;;;;;;5112147;27;20592;-56
2021/12/04 07:43:52;;;;;;;3.67;3.47;;;0.10;99.90;;;;;;5072895;27;20578;-56
2021/12/04 07:46:31;;;;;;;3.47;3.28;;;0.20;99.90;;;;;;5099365;27;20561;-57
2021/12/04 07:49:11;;;;;;;2.55;2.35;;;0.10;99.90;;;;;;5091704;27;20706;-55
2021/12/04 07:51:51;;;;;;;3.17;2.88;;;0.10;99.90;;;;;;5093949;27;21032;-55
2021/12/04 07:54:31;;;;;;;3.65;3.35;;;0.20;99.90;;;;;;5098029;27;20955;-55
2021/12/04 07:57:11;;;;;;;4.22;3.92;;;0.20;99.90;;;;;;5101892;27;20674;-56
2021/12/04 07:59:50;;;;;;;3.42;3.17;;;0.30;99.90;;;;;;5145582;27;20538;-55
2021/12/04 08:02:30;;;;;;;3.28;3.08;;;0.40;99.90;;;;;;5084152;27;20882;-55
2021/12/04 08:05:11;;;;;;;2.97;2.78;;;0.40;99.90;;;;;;5101776;27;20583;-55
2021/12/04 08:07:51;;;;;;;3.30;3.10;;;0.50;99.90;;;;;;5105076;27;20545;-55
2021/12/04 08:10:30;;;;;;;3.63;3.33;;;0.40;99.90;;;;;;5146317;27;20654;-56
2021/12/04 08:13:10;;;;;;;3.45;3.25;;;0.50;99.90;;;;;;5084865;28;20594;-55
2021/12/04 08:15:50;;;;;;;3.83;3.53;;;0.70;99.90;;;;;;5084037;27;20565;-55
2021/12/04 08:18:29;;;;;;;3.22;2.80;;;0.80;99.90;;;;;;5146351;27;20677;-55
2021/12/04 08:21:09;;;;;;;3.50;3.20;;;0.90;99.90;;;;;;5125810;27;20577;-54
2021/12/04 08:23:49;;;;;;;2.88;2.40;;;1.00;99.90;;;;;;5084482;27;20535;-55
2021/12/04 08:26:29;;;;;;;3.13;2.80;;;1.10;99.90;;;;;;5104540;27;20558;-55
2021/12/04 08:29:09;;;;;;;3.05;2.85;;;1.00;99.90;;;;;;5125768;27;20544;-55
2021/12/04 08:31:50;;;;;;;2.75;2.55;;;1.00;99.90;;;;;;5084469;28;20679;-55
2021/12/04 08:34:30;;;;;;;2.90;2.70;;;1.10;99.90;;;;;;5104064;27;20689;-54
2021/12/04 08:37:10;;;;;;;2.88;2.58;;;1.10;99.90;;;;;;5084924;28;20668;-54
2021/12/04 08:39:49;;;;;;;2.72;2.53;;;1.00;99.90;;;;;;5105089;27;20945;-55
2021/12/04 08:42:29;;;;;;;2.40;2.20;;;1.00;99.90;;;;;;5104876;27;20564;-56
2021/12/04 08:45:10;;;;;;;1.65;1.55;;;1.00;99.90;;;;;;5145349;27;20996;-54
2021/12/04 08:47:50;;;;;;;2.45;2.35;;;1.20;99.90;;;;;;5084114;28;21042;-56
2021/12/04 08:50:32;;;;;;;2.30;2.20;;;1.30;99.90;;;;;;5105453;27;20556;-54
2021/12/04 08:53:14;;;;;;;2.70;2.60;;;1.40;99.90;;;;;;5084705;28;20679;-54
2021/12/04 08:55:54;;;;;;;2.47;2.28;;;1.40;99.90;;;;;;5084030;27;21018;-55
2021/12/04 08:58:35;;;;;;;2.50;2.30;;;1.40;99.90;;;;;;5082918;28;21153;-54
2021/12/04 09:01:23;;;;;;;2.33;2.13;;;1.50;99.90;;;;;;5085366;28;20668;-55
2021/12/04 09:04:07;;;;;;;2.20;2.10;;;1.60;99.90;;;;;;5102977;27;20885;-55
2021/12/04 09:06:47;;;;;;;2.65;2.45;;;1.70;99.90;;;;;;5125881;27;20532;-55
2021/12/04 09:09:28;;;;;;;2.17;2.03;;;1.70;99.90;;;;;;5084397;28;20667;-55
2021/12/04 09:12:13;;;;;;;2.53;2.33;;;1.60;99.90;;;;;;5125361;27;21202;-55
2021/12/04 09:14:54;;;;;;;3.55;3.25;;;1.50;99.90;;;;;;5083569;28;20605;-55
2021/12/04 09:17:34;;;;;;;3.20;2.97;;;1.50;99.90;;;;;;5084496;27;20547;-55
2021/12/04 09:20:16;;;;;;;2.70;2.50;;;1.90;99.90;;;;;;5146225;27;20663;-55
2021/12/04 09:22:55;;;;;;;2.75;2.53;;;2.20;99.90;;;;;;5105127;27;20697;-54
2021/12/04 09:25:38;;;;;;;2.95;2.70;;;2.30;99.90;;;;;;5083855;27;20604;-55
2021/12/04 09:28:22;;;;;;;3.25;2.88;;;2.50;99.90;;;;;;5085350;28;20974;-54
2021/12/04 10:01:15;;;;;;;3.35;3.13;;;2.50;99.90;;;;;;5070789;27;21045;-54
2021/12/04 10:04:17;;;;;;;2.45;2.25;;;2.50;99.90;;;;;;5124678;27;20844;-54
2021/12/04 10:13:33;;;;;;;2.83;2.63;;;2.40;99.90;;;;;;5102446;27;20670;-54
2021/12/04 10:19:21;;;;;;;2.50;2.30;;;2.60;99.90;;;;;;5124931;27;20544;-54
2021/12/04 10:22:20;;;;;;;2.92;2.67;;;2.70;99.90;;;;;;5084369;27;20572;-54
2021/12/04 10:34:10;;;;;;;3.38;2.60;;;3.40;99.90;;;;;;5081478;28;20690;-53
2021/12/04 10:36:49;;;;;;;3.92;3.72;;;3.40;99.90;;;;;;5104652;27;20662;-55
2021/12/04 10:39:29;;;;;;;3.03;2.83;;;3.60;99.90;;;;;;5125565;27;20528;-54
2021/12/04 10:42:13;;;;;;;3.28;3.08;;;3.60;99.90;;;;;;5083898;27;20564;-54
2021/12/04 10:44:56;;;;;;;3.05;2.75;;;3.40;99.90;;;;;;5082148;27;20556;-54
2021/12/04 10:47:35;;;;;;;7.72;5.88;;;3.20;99.90;;;;;;5083382;28;20664;-54
2021/12/04 10:50:23;;;;;;;5.97;5.53;;;3.20;99.90;;;;;;5144723;27;20941;-54
2021/12/04 10:53:06;;;;;;;3.92;3.50;;;3.10;99.90;;;;;;5093852;27;20977;-55
2021/12/04 10:55:50;;;;;;;5.00;4.63;;;3.10;99.90;;;;;;5065701;28;20686;-54
2021/12/04 10:59:06;;;;;;;5.45;5.03;;;3.20;99.90;;;;;;5148077;27;20662;-54
2021/12/04 11:01:53;;;;;;;3.08;2.70;;;3.20;99.90;;;;;;5150466;27;20595;-55
2021/12/04 11:04:40;;;;;;;2.75;2.55;;;3.20;99.90;;;;;;5151424;27;20544;-55
2021/12/04 11:19:56;;;;;;;3.05;2.85;;;2.70;99.90;;;;;;5083190;28;20549;-54
2021/12/04 11:22:48;;;;;;;4.20;3.90;;;2.80;99.90;;;;;;5082601;28;20919;-55
2021/12/04 11:28:45;;;;;;;2.70;2.60;;;3.00;99.90;;;;;;5082992;27;21144;-54
2021/12/04 11:43:31;;;;;;;2.97;2.72;;;3.10;99.90;;;;;;5082733;27;20562;-54
2021/12/04 11:46:20;;;;;;;3.20;3.00;;;3.00;99.90;;;;;;5070819;27;21190;-54
2021/12/04 11:49:09;;;;;;;3.20;3.00;;;3.00;99.90;;;;;;5143495;27;20673;-55
2021/12/04 11:51:57;;;;;;;3.67;3.20;;;3.20;99.90;;;;;;5082248;28;20664;-55
2021/12/04 11:54:46;;;;;;;3.15;2.88;;;3.30;99.90;;;;;;5074994;28;20733;-54
2021/12/04 11:57:31;;;;;;;2.88;2.67;;;3.30;99.90;;;;;;5081451;28;21016;-54
2021/12/04 12:00:17;;;;;;;3.05;2.85;;;3.30;99.90;;;;;;5103903;27;21022;-54
2021/12/04 12:03:09;;;;;;;2.53;2.42;;;3.40;99.90;;;;;;5115797;27;20582;-53
2021/12/04 12:05:51;;;;;;;4.95;4.55;;;3.50;99.90;;;;;;5135680;27;20671;-54
2021/12/04 12:08:33;;;;;;;5.32;4.90;;;3.50;99.90;;;;;;5083664;27;20553;-54
2021/12/04 12:11:25;;;;;;;3.65;3.35;;;3.50;99.90;;;;;;5064103;27;20579;-54
2021/12/04 12:14:10;;;;;;;3.30;3.10;;;3.40;99.90;;;;;;5079193;27;21125;-54
2021/12/04 12:16:52;;;;;;;3.00;2.80;;;3.30;99.90;;;;;;5080994;27;20947;-54
2021/12/04 12:19:38;;;;;;;2.83;2.63;;;3.40;99.90;;;;;;5125982;27;20669;-54
2021/12/04 12:22:38;;;;;;;2.92;2.72;;;3.40;99.90;;;;;;5091819;27;20933;-55
2021/12/04 12:25:30;;;;;;;3.45;3.15;;;3.40;99.90;;;;;;5059913;27;20604;-54
2021/12/04 12:37:22;;;;;;;3.28;3.08;;;3.50;99.90;;;;;;5073831;28;20541;-54
2021/12/04 12:40:06;;;;;;;2.85;2.70;;;3.40;99.90;;;;;;5053442;27;20612;-55
2021/12/04 12:42:45;;;;;;;3.13;2.92;;;3.30;99.90;;;;;;5070270;28;20719;-55
2021/12/04 12:45:29;;;;;;;3.70;3.40;;;3.20;99.90;;;;;;5056713;28;20704;-55
2021/12/04 12:48:10;;;;;;;3.30;3.00;;;3.10;99.90;;;;;;5080464;27;20581;-55
2021/12/04 12:50:52;;;;;;;2.85;2.65;;;3.00;99.90;;;;;;5066426;28;20717;-55
2021/12/04 12:53:42;;;;;;;3.03;2.83;;;2.90;99.90;;;;;;5111151;22;20614;-56
2021/12/04 12:56:26;;;;;;;3.38;3.17;;;2.90;99.90;;;;;;5070407;28;20687;-56
2021/12/04 12:59:22;;;;;;;2.78;2.58;;;3.00;99.90;;;;;;5065834;27;20541;-56
2021/12/04 13:14:16;;;;;;;3.90;3.70;;;2.90;99.90;;;;;;5140915;27;21088;-56
2021/12/04 13:17:07;;;;;;;10.80;10.00;;;2.90;99.90;;;;;;5099728;27;20940;-56
2021/12/04 13:19:50;;;;;;;6.72;6.22;;;2.90;99.90;;;;;;5054097;28;20760;-56
2021/12/04 13:22:33;;;;;;;6.47;5.97;;;2.90;99.90;;;;;;5105546;27;20593;-57
2021/12/04 13:25:15;;;;;;;4.65;4.35;;;2.80;99.90;;;;;;5121121;27;20592;-56
2021/12/04 13:30:32;;;;;;;6.22;5.82;;;2.70;99.90;;;;;;5117261;27;20564;-58
2021/12/04 13:33:12;;;;;;;5.22;4.93;;;2.80;99.90;;;;;;5077339;27;21115;-55
2021/12/04 13:35:52;;;;;;;6.97;6.57;;;2.80;99.90;;;;;;5079713;28;20711;-57
2021/12/04 13:38:32;;;;;;;4.47;4.18;;;2.80;99.90;;;;;;5099361;27;20568;-57
2021/12/04 13:41:12;;;;;;;5.32;5.03;;;2.80;99.90;;;;;;5144362;27;20942;-56
2021/12/04 13:43:53;;;;;;;6.32;5.88;;;2.70;99.90;;;;;;5076060;28;21067;-57
2021/12/04 13:46:40;;;;;;;3.90;3.67;;;2.70;99.90;;;;;;5081063;28;20667;-57
2021/12/04 13:49:26;;;;;;;4.15;3.88;;;2.70;99.90;;;;;;5131913;22;20731;-57
2021/12/04 13:52:08;;;;;;;4.93;4.38;;;2.70;99.90;;;;;;5076337;27;20933;-56
2021/12/04 13:54:52;;;;;;;3.63;3.42;;;2.70;99.90;;;;;;5082050;27;20528;-56
2021/12/04 13:57:32;;;;;;;4.18;3.88;;;2.70;99.90;;;;;;5077700;27;20551;-55
2021/12/04 14:00:14;;;;;;;15.45;14.35;;;2.60;99.90;;;;;;5054846;28;20733;-56
2021/12/04 14:02:54;;;;;;;5.18;4.78;;;2.60;99.90;;;;;;5115540;27;20591;-56
2021/12/04 14:05:34;;;;;;;5.65;5.05;;;2.50;99.90;;;;;;5079744;27;20559;-55
2021/12/04 14:08:14;;;;;;;3.97;3.67;;;2.40;99.90;;;;;;5124446;27;20721;-54
2021/12/04 14:10:54;;;;;;;3.20;3.00;;;2.40;99.90;;;;;;5076333;28;20649;-56
2021/12/04 14:13:34;;;;;;;3.80;3.50;;;2.30;99.90;;;;;;5078889;28;20688;-57
2021/12/04 14:16:13;;;;;;;3.60;3.40;;;2.20;99.90;;;;;;5079175;27;20547;-58
2021/12/04 14:18:54;;;;;;;3.72;3.42;;;2.20;99.90;;;;;;5088742;27;20733;-57
2021/12/04 14:21:33;;;;;;;5.53;5.07;;;2.10;99.90;;;;;;5095633;27;20587;-55
2021/12/04 14:24:13;;;;;;;3.83;3.53;;;2.00;99.90;;;;;;5143075;27;20915;-55
2021/12/04 14:26:54;;;;;;;4.90;4.55;;;1.90;99.90;;;;;;5079013;27;20912;-57
2021/12/04 14:29:36;;;;;;;4.60;4.20;;;1.90;99.90;;;;;;5057966;28;20706;-57
2021/12/04 14:32:21;;;;;;;4.40;4.10;;;1.80;99.90;;;;;;5074847;28;21108;-59
2021/12/04 14:35:03;;;;;;;3.90;3.60;;;1.80;99.90;;;;;;5071669;27;20560;-58
2021/12/04 14:37:45;;;;;;;3.25;3.05;;;1.80;99.90;;;;;;5124309;27;20726;-58
2021/12/04 14:40:28;;;;;;;3.45;3.25;;;1.80;99.90;;;;;;5103545;27;20557;-58
2021/12/04 14:43:10;;;;;;;3.38;3.17;;;1.80;99.90;;;;;;5144906;27;20959;-58
2021/12/04 14:45:52;;;;;;;4.45;4.15;;;1.80;99.90;;;;;;5060453;27;20563;-57
2021/12/04 14:48:35;;;;;;;4.43;4.13;;;1.80;99.90;;;;;;5070142;27;20985;-57
2021/12/04 14:51:17;;;;;;;3.90;3.70;;;1.70;99.90;;;;;;5098272;27;20688;-57
2021/12/04 14:53:58;;;;;;;4.60;4.30;;;1.70;99.90;;;;;;5098104;27;20530;-57
2021/12/04 14:56:38;;;;;;;4.57;4.20;;;1.70;99.90;;;;;;5081591;27;20574;-57
2021/12/04 14:59:18;;;;;;;4.18;3.88;;;1.70;99.90;;;;;;5087882;27;20562;-57
2021/12/04 15:01:57;;;;;;;4.82;4.43;;;1.70;99.90;;;;;;5128366;27;20663;-57
2021/12/04 15:04:41;;;;;;;4.32;3.97;;;1.60;99.90;;;;;;5072719;27;20556;-58
2021/12/04 15:07:23;;;;;;;5.10;4.70;;;1.60;99.90;;;;;;5145524;27;21049;-57
2021/12/04 15:10:05;;;;;;;4.80;4.38;;;1.60;99.90;;;;;;5085854;27;20632;-57
2021/12/04 15:12:45;;;;;;;3.15;2.85;;;1.60;99.90;;;;;;5143557;27;20587;-57
2021/12/04 15:15:28;;;;;;;3.28;3.08;;;1.60;99.90;;;;;;5081723;27;20564;-58
2021/12/04 15:18:13;;;;;;;3.83;3.63;;;1.50;99.90;;;;;;5070776;27;20600;-57
2021/12/04 15:20:57;;;;;;;3.00;2.80;;;1.60;99.90;;;;;;5076860;28;20735;-57
2021/12/04 15:23:39;;;;;;;2.70;2.50;;;1.50;99.90;;;;;;5082928;28;20668;-57
2021/12/04 15:26:20;;;;;;;3.72;3.50;;;1.50;99.90;;;;;;5083769;27;20565;-58
2021/12/04 15:29:00;;;;;;;3.65;3.45;;;1.50;99.90;;;;;;5089145;27;20574;-57
2021/12/04 15:31:41;;;;;;;3.72;3.53;;;1.50;99.90;;;;;;5080852;27;20569;-58
2021/12/04 15:34:32;;;;;;;4.00;3.80;;;1.50;99.90;;;;;;5141814;27;20677;-57
2021/12/04 15:37:12;;;;;;;3.03;2.85;;;1.50;99.90;;;;;;5077115;28;21034;-57
2021/12/04 15:39:53;;;;;;;3.03;2.83;;;1.50;99.90;;;;;;5118552;27;20613;-58
2021/12/04 15:42:51;;;;;;;3.17;2.97;;;1.50;99.90;;;;;;5125950;27;20556;-58
2021/12/04 15:45:40;;;;;;;3.28;3.08;;;1.60;99.90;;;;;;5106059;27;21008;-58
2021/12/04 15:54:15;;;;;;;2.28;2.17;;;1.60;99.90;;;;;;5099104;27;21161;-57
2021/12/04 15:56:56;;;;;;;3.42;3.22;;;1.60;99.90;;;;;;5078013;27;20556;-58
2021/12/04 15:59:35;;;;;;;8.65;8.02;;;1.60;99.90;;;;;;5122006;27;20585;-58
2021/12/04 16:02:19;;;;;;;4.05;3.75;;;1.60;99.90;;;;;;5083657;28;20680;-58
2021/12/04 16:05:09;;;;;;;3.35;3.15;;;1.60;99.90;;;;;;5082998;28;20536;-58
2021/12/04 16:07:51;;;;;;;3.10;2.90;;;1.60;99.90;;;;;;5078274;27;20553;-59
2021/12/04 16:10:30;;;;;;;8.23;7.55;;;1.60;99.90;;;;;;5097746;27;21226;-58
2021/12/04 16:13:12;;;;;;;3.28;3.08;;;1.60;99.90;;;;;;5063687;27;21096;-59
2021/12/04 16:15:52;;;;;;;2.83;2.63;;;1.60;99.90;;;;;;5099738;27;20959;-59
2021/12/04 16:18:31;;;;;;;11.93;3.55;;;1.60;99.90;;;;;;5098943;27;21080;-58
2021/12/04 16:21:11;;;;;;;1.80;1.70;;;1.60;99.90;;;;;;5084490;27;21063;-59
2021/12/04 16:23:52;;;;;;;2.85;2.65;;;1.60;99.90;;;;;;5106658;27;20549;-59
2021/12/04 16:26:32;;;;;;;2.33;2.22;;;1.60;99.90;;;;;;5084187;27;20531;-58
2021/12/04 16:29:14;;;;;;;1.88;1.77;;;1.60;99.90;;;;;;5151347;27;20677;-58
2021/12/04 16:32:17;;;;;;;9.38;4.00;;;1.60;99.90;;;;;;5125092;27;20537;-59
2021/12/04 16:35:16;;;;;;;2.25;2.15;;;1.60;99.90;;;;;;5121522;27;21152;-58
2021/12/04 16:37:55;;;;;;;6.20;5.53;;;1.70;99.90;;;;;;5078703;28;20973;-58
2021/12/04 16:40:37;;;;;;;4.78;3.00;;;1.70;99.90;;;;;;5084390;27;20580;-59
2021/12/04 16:43:20;;;;;;;2.60;2.40;;;1.70;99.90;;;;;;5142880;27;20550;-58